Time;durP1;ratioP1;P1;durP2;ratioP2;P2;SDS_P1;SDS_P2;PMS_P1;PMS_P2;Temp;Humidity;BMP_temperature;BMP_pressure;BME280_temperature;BME280_humidity;BME280_pressure;Samples;Min_cycle;Max_cycle;Signal;HPM_P1;HPM_P2
2022/09/24 00:01:07;;;;;;;4.22;3.60;;;21.90;50.60;;;;;;5045528;28;20068;-50
2022/09/24 00:03:33;;;;;;;4.00;2.85;;;21.90;50.60;;;;;;5045567;28;20079;-48
2022/09/24 00:06:01;;;;;;;4.45;3.33;;;21.80;50.50;;;;;;5047321;28;20029;-51
2022/09/24 00:08:27;;;;;;;3.05;2.75;;;21.90;50.60;;;;;;5036562;28;20018;-49
2022/09/24 00:10:55;;;;;;;4.22;3.30;;;21.90;50.60;;;;;;5033464;28;20444;-50
2022/09/24 00:13:21;;;;;;;4.22;3.50;;;21.90;50.70;;;;;;5048436;28;20107;-47
2022/09/24 00:15:49;;;;;;;4.35;3.47;;;21.90;50.70;;;;;;5048459;28;20037;-50
2022/09/24 00:18:17;;;;;;;4.93;3.28;;;21.90;50.80;;;;;;5043337;28;20116;-49
2022/09/24 00:20:43;;;;;;;4.15;3.30;;;21.90;50.90;;;;;;5046336;28;20020;-48
2022/09/24 00:23:10;;;;;;;3.80;3.40;;;21.90;50.90;;;;;;5049246;28;20035;-49
2022/09/24 00:28:29;;;;;;;3.75;3.30;;;21.80;50.80;;;;;;5042754;28;20030;-49
2022/09/24 00:30:59;;;;;;;4.55;3.30;;;21.80;50.80;;;;;;5047223;28;20033;-48
2022/09/24 00:33:27;;;;;;;4.50;3.67;;;21.90;50.90;;;;;;5045071;28;20410;-52
2022/09/24 00:35:57;;;;;;;4.40;3.63;;;21.80;50.80;;;;;;5047441;28;20063;-49
2022/09/24 00:38:24;;;;;;;4.05;3.33;;;21.80;50.80;;;;;;5047193;28;20321;-52
2022/09/24 00:40:49;;;;;;;5.05;3.97;;;21.80;50.80;;;;;;5047338;28;20562;-52
2022/09/24 00:43:33;;;;;;;3.75;3.30;;;21.80;50.90;;;;;;5046103;28;20033;-51
2022/09/24 00:46:32;;;;;;;3.95;3.35;;;21.80;50.90;;;;;;5047992;28;20033;-51
2022/09/24 00:49:09;;;;;;;4.30;3.55;;;21.80;50.90;;;;;;5040429;28;20028;-47
2022/09/24 00:51:36;;;;;;;4.63;3.63;;;21.80;50.90;;;;;;5047480;28;20111;-49
2022/09/24 00:54:10;;;;;;;3.97;3.42;;;21.80;50.90;;;;;;5044455;28;20025;-52
2022/09/24 00:56:38;;;;;;;;;;;21.80;51.00;;;;;;5044997;28;20106;-53
2022/09/24 00:59:07;;;;;;;4.32;3.35;;;21.80;51.00;;;;;;5048502;28;19920;-49
2022/09/24 01:01:33;;;;;;;4.03;3.17;;;21.80;51.00;;;;;;5047524;28;20108;-49
2022/09/24 01:04:01;;;;;;;3.80;3.22;;;21.70;50.90;;;;;;5048039;28;20551;-51
2022/09/24 01:06:27;;;;;;;4.28;3.35;;;21.80;51.00;;;;;;5042881;28;20047;-49
2022/09/24 01:08:55;;;;;;;4.13;3.72;;;21.80;51.00;;;;;;5038190;28;20041;-51
2022/09/24 01:11:38;;;;;;;4.57;3.42;;;21.80;51.00;;;;;;5048282;28;20033;-50
2022/09/24 01:14:36;;;;;;;4.20;3.70;;;21.80;51.00;;;;;;5043069;28;20036;-48
2022/09/24 01:17:15;;;;;;;4.07;3.35;;;21.80;51.00;;;;;;5017380;28;20415;-50
2022/09/24 01:19:40;;;;;;;4.70;3.50;;;21.80;51.10;;;;;;5043883;28;20037;-52
2022/09/24 01:22:45;;;;;;;4.90;3.22;;;21.80;51.10;;;;;;5043672;28;20466;-51
2022/09/24 01:25:31;;;;;;;5.05;3.65;;;21.80;51.10;;;;;;5042386;28;20099;-50
2022/09/24 01:28:22;;;;;;;5.15;4.03;;;21.70;51.20;;;;;;5043565;28;20436;-51
2022/09/24 01:30:52;;;;;;;4.65;3.72;;;21.70;51.30;;;;;;5044067;28;20467;-52
2022/09/24 01:33:24;;;;;;;4.97;3.83;;;21.80;51.40;;;;;;5044930;28;20037;-52
2022/09/24 01:35:58;;;;;;;4.45;3.78;;;21.80;51.30;;;;;;5047017;28;20036;-52
2022/09/24 01:38:28;;;;;;;4.65;3.80;;;21.80;51.30;;;;;;5043481;28;20025;-49
2022/09/24 01:40:57;;;;;;;4.72;4.00;;;21.70;51.30;;;;;;5044723;28;20516;-51
2022/09/24 01:43:26;;;;;;;4.40;3.70;;;21.70;51.30;;;;;;5046044;28;20025;-52
2022/09/24 01:45:56;;;;;;;4.57;4.00;;;21.70;51.20;;;;;;5045567;28;20025;-50
2022/09/24 01:48:22;;;;;;;4.90;4.38;;;21.70;51.20;;;;;;5043424;28;20047;-52
2022/09/24 01:50:59;;;;;;;4.30;3.90;;;21.70;51.30;;;;;;5039886;28;20057;-51
2022/09/24 01:53:30;;;;;;;5.07;4.10;;;21.70;51.20;;;;;;5042516;28;20311;-51
2022/09/24 01:56:11;;;;;;;4.53;3.78;;;21.70;51.20;;;;;;5042219;28;20033;-51
2022/09/24 01:58:48;;;;;;;4.25;3.78;;;21.70;51.30;;;;;;5042267;28;20052;-50
2022/09/24 02:01:21;;;;;;;4.63;4.22;;;21.70;51.30;;;;;;5039311;28;20039;-52
2022/09/24 02:03:55;;;;;;;4.55;4.10;;;21.70;51.30;;;;;;5047771;28;20040;-48
2022/09/24 02:06:28;;;;;;;5.00;4.50;;;21.70;51.30;;;;;;5041223;28;20148;-50
2022/09/24 02:08:57;;;;;;;4.97;4.20;;;21.70;51.30;;;;;;5042345;28;20041;-51
2022/09/24 02:11:24;;;;;;;5.25;3.88;;;21.70;51.90;;;;;;5037378;28;20498;-49
2022/09/24 02:14:11;;;;;;;5.35;4.50;;;21.70;51.30;;;;;;5047161;28;20052;-53
2022/09/24 02:16:44;;;;;;;5.13;4.45;;;21.70;51.30;;;;;;5047682;28;20337;-52
2022/09/24 02:19:14;;;;;;;5.15;4.13;;;21.70;51.30;;;;;;5037836;28;20037;-50
2022/09/24 02:21:42;;;;;;;5.55;4.25;;;21.70;51.30;;;;;;5043301;28;20032;-49
2022/09/24 02:24:15;;;;;;;5.45;4.60;;;21.70;51.30;;;;;;5045781;28;20033;-49
2022/09/24 02:26:42;;;;;;;5.60;4.77;;;21.70;51.30;;;;;;5044138;28;20025;-52
2022/09/24 02:29:08;;;;;;;5.55;4.63;;;21.70;51.30;;;;;;5043770;28;20291;-51
2022/09/24 02:31:39;;;;;;;5.18;3.90;;;21.70;51.30;;;;;;5046174;28;20025;-49
2022/09/24 02:34:22;;;;;;;4.57;3.70;;;21.70;51.30;;;;;;5040657;28;20021;-52
2022/09/24 02:36:56;;;;;;;4.63;4.03;;;21.70;51.30;;;;;;5048175;28;20028;-48
2022/09/24 02:39:22;;;;;;;4.72;3.88;;;21.70;51.30;;;;;;5045378;28;20069;-47
2022/09/24 02:41:50;;;;;;;4.72;4.03;;;21.70;51.30;;;;;;5050555;28;20079;-51
2022/09/24 02:44:17;;;;;;;4.53;4.03;;;21.70;51.30;;;;;;5047969;28;20444;-48
2022/09/24 02:46:43;;;;;;;4.53;3.85;;;21.70;51.30;;;;;;5051621;28;20041;-51
2022/09/24 02:49:10;;;;;;;4.70;4.07;;;21.70;51.40;;;;;;5041567;28;20120;-52
2022/09/24 02:51:36;;;;;;;4.65;4.05;;;21.70;51.40;;;;;;5047901;28;20024;-50
2022/09/24 02:54:02;;;;;;;5.13;4.15;;;21.60;51.40;;;;;;5047823;28;20036;-51
2022/09/24 02:56:28;;;;;;;7.05;4.30;;;21.70;51.40;;;;;;5043733;28;20104;-49
2022/09/24 02:58:54;;;;;;;4.45;3.85;;;21.60;51.40;;;;;;5041352;28;20174;-48
2022/09/24 03:01:21;;;;;;;4.95;4.28;;;21.70;51.40;;;;;;5045912;28;20497;-49
2022/09/24 03:03:47;;;;;;;5.25;4.13;;;21.60;51.30;;;;;;5045174;28;20345;-52
2022/09/24 03:06:13;;;;;;;5.32;4.30;;;21.70;51.40;;;;;;5037532;28;20079;-51
2022/09/24 03:08:41;;;;;;;4.30;3.75;;;21.60;51.40;;;;;;5043384;28;20055;-51
2022/09/24 03:11:09;;;;;;;4.72;3.92;;;21.70;51.40;;;;;;5042292;28;20353;-52
2022/09/24 03:13:35;;;;;;;4.97;4.10;;;21.70;51.40;;;;;;5051705;28;20031;-52
2022/09/24 03:16:01;;;;;;;4.32;3.70;;;21.60;51.40;;;;;;5043736;28;20073;-51
2022/09/24 03:18:27;;;;;;;4.47;4.07;;;21.70;51.40;;;;;;5046984;28;20120;-47
2022/09/24 03:21:02;;;;;;;4.82;3.97;;;21.60;51.40;;;;;;5044902;28;20463;-51
2022/09/24 03:23:28;;;;;;;4.68;4.00;;;21.70;51.40;;;;;;5050952;28;20040;-51
2022/09/24 03:25:54;;;;;;;4.40;3.83;;;21.70;51.40;;;;;;5048917;28;20868;-48
2022/09/24 03:28:20;;;;;;;4.28;3.80;;;21.60;51.40;;;;;;5045396;28;20040;-52
2022/09/24 03:31:01;;;;;;;5.13;4.18;;;21.70;51.40;;;;;;5046885;28;20182;-50
2022/09/24 03:33:39;;;;;;;5.25;3.95;;;21.70;51.40;;;;;;5046856;28;20570;-50
2022/09/24 03:36:11;;;;;;;6.60;3.75;;;21.60;51.40;;;;;;5036391;28;20406;-50
2022/09/24 03:38:38;;;;;;;4.43;3.72;;;21.60;51.50;;;;;;5050344;28;20104;-49
2022/09/24 03:41:05;;;;;;;5.22;3.70;;;21.60;51.50;;;;;;5047024;28;20040;-48
2022/09/24 03:43:31;;;;;;;4.22;3.55;;;21.60;51.50;;;;;;5045938;28;20104;-51
2022/09/24 03:45:58;;;;;;;4.63;3.83;;;21.70;51.60;;;;;;5046131;28;20029;-50
2022/09/24 03:48:24;;;;;;;4.18;3.78;;;21.70;51.60;;;;;;5045597;28;20357;-52
2022/09/24 03:50:51;;;;;;;4.55;3.85;;;21.70;51.60;;;;;;5047093;28;20133;-49
2022/09/24 03:53:17;;;;;;;4.22;3.55;;;21.70;51.60;;;;;;5044573;28;20036;-54
2022/09/24 03:55:45;;;;;;;4.15;3.75;;;21.60;51.50;;;;;;5044337;28;20432;-51
2022/09/24 03:58:12;;;;;;;4.72;4.15;;;21.60;51.50;;;;;;5044709;28;20044;-48
2022/09/24 04:00:38;;;;;;;4.40;3.78;;;21.60;51.50;;;;;;5046499;28;20388;-51
2022/09/24 04:03:05;;;;;;;4.75;4.05;;;21.60;51.50;;;;;;5058822;28;20025;-49
2022/09/24 04:05:31;;;;;;;4.30;3.85;;;21.60;51.50;;;;;;5047772;28;20336;-52
2022/09/24 04:07:58;;;;;;;4.70;3.72;;;21.60;51.50;;;;;;5048159;28;20085;-48
2022/09/24 04:10:24;;;;;;;4.40;3.75;;;21.60;51.50;;;;;;5046828;28;20050;-51
2022/09/24 04:12:51;;;;;;;4.50;3.50;;;21.60;51.50;;;;;;5048386;28;20356;-50
2022/09/24 04:15:17;;;;;;;4.70;3.90;;;21.60;51.50;;;;;;5043791;28;20037;-51
2022/09/24 04:17:51;;;;;;;4.03;3.60;;;21.60;51.60;;;;;;5050113;28;20036;-52
2022/09/24 04:20:21;;;;;;;5.15;4.30;;;21.60;51.60;;;;;;5046529;28;20409;-54
2022/09/24 04:22:48;;;;;;;4.00;3.60;;;21.60;51.60;;;;;;5042776;28;20029;-51
2022/09/24 04:25:15;;;;;;;4.18;3.70;;;21.60;51.60;;;;;;5048217;28;20036;-53
2022/09/24 04:27:42;;;;;;;4.43;3.85;;;21.60;51.60;;;;;;5048917;28;20032;-52
2022/09/24 04:30:09;;;;;;;5.20;4.40;;;21.60;51.60;;;;;;5049233;28;20344;-50
2022/09/24 04:32:34;;;;;;;4.72;3.80;;;21.60;51.60;;;;;;5041063;28;20368;-51
2022/09/24 04:35:00;;;;;;;4.78;4.20;;;21.60;51.60;;;;;;5045297;28;20033;-52
2022/09/24 04:37:26;;;;;;;7.10;4.78;;;21.60;51.60;;;;;;5047239;28;20048;-48
2022/09/24 04:39:52;;;;;;;4.45;3.80;;;21.60;51.60;;;;;;5048774;28;20091;-50
2022/09/24 04:42:18;;;;;;;5.60;3.80;;;21.60;52.20;;;;;;5047961;28;20024;-51
2022/09/24 04:44:47;;;;;;;5.25;4.40;;;21.60;51.60;;;;;;5048391;28;20055;-54
2022/09/24 04:47:14;;;;;;;4.50;4.10;;;21.60;51.60;;;;;;5046935;28;20110;-53
2022/09/24 04:49:44;;;;;;;4.22;3.83;;;21.60;51.60;;;;;;5046267;28;20355;-53
2022/09/24 04:52:13;;;;;;;4.20;3.80;;;21.60;51.60;;;;;;5047573;28;20032;-54
2022/09/24 04:54:47;;;;;;;5.35;3.72;;;21.60;51.60;;;;;;5046618;28;20033;-52
2022/09/24 04:57:13;;;;;;;4.72;4.03;;;21.60;51.60;;;;;;5047686;28;20039;-51
2022/09/24 04:59:40;;;;;;;4.65;3.85;;;21.60;51.60;;;;;;5043757;28;20044;-55
2022/09/24 05:02:07;;;;;;;4.65;4.18;;;21.60;51.60;;;;;;5034712;28;20036;-53
2022/09/24 05:04:36;;;;;;;6.30;4.05;;;21.60;51.60;;;;;;5046959;28;20048;-53
2022/09/24 05:07:03;;;;;;;4.30;3.80;;;21.60;51.60;;;;;;5046327;28;20043;-51
2022/09/24 05:09:30;;;;;;;4.82;3.88;;;21.60;51.70;;;;;;5044466;28;20132;-50
2022/09/24 05:12:00;;;;;;;4.72;4.15;;;21.60;51.60;;;;;;5045872;28;20117;-50
2022/09/24 05:14:26;;;;;;;4.20;3.67;;;21.60;51.60;;;;;;5044280;28;20039;-55
2022/09/24 05:16:52;;;;;;;5.30;4.22;;;21.60;51.60;;;;;;5039156;28;20060;-51
2022/09/24 05:19:18;;;;;;;4.80;4.07;;;21.60;51.60;;;;;;5038493;28;20048;-51
2022/09/24 05:21:45;;;;;;;5.13;3.65;;;21.60;51.60;;;;;;5044529;28;20024;-53
2022/09/24 05:24:11;;;;;;;4.65;4.00;;;21.60;51.60;;;;;;5046004;28;20033;-48
2022/09/24 05:29:22;;;;;;;4.82;4.00;;;21.60;51.60;;;;;;5042602;28;20028;-48
2022/09/24 05:31:48;;;;;;;5.60;4.40;;;21.60;51.60;;;;;;5045078;28;20447;-50
2022/09/24 05:34:14;;;;;;;4.10;3.70;;;21.60;52.20;;;;;;5043113;28;20457;-53
2022/09/24 05:36:42;;;;;;;4.43;3.83;;;21.60;51.60;;;;;;5044903;28;20051;-54
2022/09/24 05:39:08;;;;;;;4.82;4.28;;;21.50;51.60;;;;;;5043157;28;20045;-54
2022/09/24 05:41:34;;;;;;;5.75;4.10;;;21.60;51.70;;;;;;5058624;28;20033;-50
2022/09/24 05:44:00;;;;;;;4.03;3.60;;;21.60;51.70;;;;;;5044378;28;20032;-51
2022/09/24 05:46:26;;;;;;;4.95;4.07;;;21.60;51.70;;;;;;5046712;28;20029;-52
2022/09/24 05:48:52;;;;;;;4.40;4.00;;;21.60;51.70;;;;;;5046885;28;20091;-51
2022/09/24 05:51:18;;;;;;;4.75;4.25;;;21.60;51.70;;;;;;5045815;28;20059;-48
2022/09/24 05:53:44;;;;;;;4.32;3.70;;;21.60;51.70;;;;;;5044607;28;20033;-49
2022/09/24 05:56:09;;;;;;;4.55;4.10;;;21.60;51.70;;;;;;5040761;28;20044;-47
2022/09/24 05:58:35;;;;;;;4.95;4.18;;;21.60;51.70;;;;;;5044896;28;20021;-50
2022/09/24 06:01:01;;;;;;;5.40;4.30;;;21.60;51.70;;;;;;5042819;28;20029;-49
2022/09/24 06:03:30;;;;;;;4.35;3.95;;;21.50;51.60;;;;;;5041430;28;20087;-50
2022/09/24 06:06:00;;;;;;;4.55;4.00;;;21.60;51.70;;;;;;5044326;28;20214;-48
2022/09/24 06:08:28;;;;;;;4.18;3.78;;;21.60;51.70;;;;;;5040880;28;20483;-48
2022/09/24 06:10:58;;;;;;;4.25;3.85;;;21.60;51.70;;;;;;5041703;28;20086;-46
2022/09/24 06:13:24;;;;;;;4.40;3.85;;;21.60;51.60;;;;;;5050181;28;20032;-48
2022/09/24 06:15:50;;;;;;;6.38;4.07;;;21.60;51.60;;;;;;5046180;28;20138;-47
2022/09/24 06:18:16;;;;;;;4.57;3.88;;;21.60;51.60;;;;;;5045306;28;20965;-50
2022/09/24 06:20:43;;;;;;;4.75;4.10;;;21.60;51.70;;;;;;5050756;28;20033;-50
2022/09/24 06:23:09;;;;;;;4.50;3.80;;;21.60;51.70;;;;;;5051400;28;20029;-49
2022/09/24 06:25:35;;;;;;;4.50;3.90;;;21.60;51.60;;;;;;5048292;28;20029;-47
2022/09/24 06:28:03;;;;;;;4.82;4.00;;;21.60;51.70;;;;;;5050622;28;20123;-47
2022/09/24 06:30:36;;;;;;;4.32;3.92;;;21.60;51.70;;;;;;5049936;28;20463;-49
2022/09/24 06:33:05;;;;;;;4.28;3.55;;;21.60;51.80;;;;;;5051196;28;20021;-50
2022/09/24 06:35:35;;;;;;;4.63;4.05;;;21.60;51.80;;;;;;5042655;28;20083;-51
2022/09/24 06:38:02;;;;;;;4.70;3.75;;;21.60;51.80;;;;;;5049700;28;20029;-53
2022/09/24 06:40:28;;;;;;;4.38;3.97;;;21.60;51.80;;;;;;5051354;28;20424;-52
2022/09/24 06:42:54;;;;;;;5.93;3.95;;;21.60;51.80;;;;;;5050621;28;20071;-49
2022/09/24 06:45:21;;;;;;;4.82;3.72;;;21.60;51.80;;;;;;5043718;28;20031;-52
2022/09/24 06:47:58;;;;;;;4.97;4.07;;;21.60;51.80;;;;;;5045877;28;20413;-52
2022/09/24 06:50:26;;;;;;;4.10;3.70;;;21.60;51.90;;;;;;5042711;28;20028;-51
2022/09/24 06:52:54;;;;;;;5.88;4.13;;;21.60;51.90;;;;;;5044518;28;20032;-52
2022/09/24 06:55:20;;;;;;;4.72;3.97;;;21.60;51.90;;;;;;5048467;28;20043;-49
2022/09/24 06:57:45;;;;;;;4.15;3.72;;;21.60;51.90;;;;;;5050076;28;20025;-52
2022/09/24 07:00:13;;;;;;;4.93;4.18;;;21.60;51.90;;;;;;5043948;28;20063;-50
2022/09/24 07:02:39;;;;;;;7.72;4.35;;;21.60;52.00;;;;;;5041750;28;20017;-48
2022/09/24 07:05:07;;;;;;;5.10;4.15;;;21.60;52.00;;;;;;5041868;28;20500;-51
2022/09/24 07:07:33;;;;;;;4.68;3.60;;;21.60;52.00;;;;;;5045041;28;20045;-52
2022/09/24 07:10:01;;;;;;;4.35;3.83;;;21.60;52.10;;;;;;5037664;28;20040;-47
2022/09/24 07:12:32;;;;;;;4.50;3.67;;;21.60;52.20;;;;;;5038413;28;20028;-50
2022/09/24 07:14:59;;;;;;;4.50;3.72;;;21.60;52.10;;;;;;5034930;28;20127;-51
2022/09/24 07:17:26;;;;;;;5.28;4.25;;;21.60;52.70;;;;;;5044538;28;20032;-50
2022/09/24 07:19:52;;;;;;;4.25;3.80;;;21.60;52.10;;;;;;5045327;28;20060;-52
2022/09/24 07:22:18;;;;;;;4.00;3.20;;;21.60;52.10;;;;;;5046544;28;20334;-50
2022/09/24 07:24:44;;;;;;;5.13;3.90;;;21.60;52.20;;;;;;5046072;28;20497;-50
2022/09/24 07:27:11;;;;;;;4.53;3.72;;;21.60;52.20;;;;;;5040684;28;20044;-52
2022/09/24 07:29:37;;;;;;;5.50;3.67;;;21.60;52.20;;;;;;5046162;28;20102;-48
2022/09/24 07:32:03;;;;;;;4.95;3.72;;;21.60;52.30;;;;;;5050309;28;20025;-54
2022/09/24 07:34:30;;;;;;;5.03;3.75;;;21.60;52.40;;;;;;5049503;28;20034;-51
2022/09/24 07:36:56;;;;;;;5.75;3.63;;;21.60;52.40;;;;;;5040575;28;20068;-49
2022/09/24 07:39:26;;;;;;;4.25;3.67;;;21.60;52.50;;;;;;5041638;28;20041;-54
2022/09/24 07:41:52;;;;;;;4.07;3.47;;;21.60;52.50;;;;;;5046478;28;20025;-49
2022/09/24 07:44:22;;;;;;;5.10;3.63;;;21.60;52.60;;;;;;5039765;28;20103;-49
2022/09/24 07:46:49;;;;;;;4.47;3.65;;;21.60;52.60;;;;;;5042810;28;20032;-51
2022/09/24 07:49:16;;;;;;;4.40;3.65;;;21.60;52.70;;;;;;5048838;28;20437;-53
2022/09/24 07:51:42;;;;;;;4.95;3.72;;;21.60;52.70;;;;;;5047605;28;20029;-47
2022/09/24 07:54:09;;;;;;;4.75;3.80;;;21.60;52.70;;;;;;5042648;28;20032;-51
2022/09/24 07:56:36;;;;;;;4.72;3.40;;;21.60;52.70;;;;;;5035694;28;20049;-54
2022/09/24 07:59:02;;;;;;;4.00;3.38;;;21.60;52.70;;;;;;5039527;28;20051;-51
2022/09/24 08:01:29;;;;;;;4.28;3.17;;;21.60;52.70;;;;;;5048494;28;20041;-46
2022/09/24 08:03:55;;;;;;;7.20;3.55;;;21.60;52.80;;;;;;5048211;28;20050;-48
2022/09/24 08:06:22;;;;;;;5.60;3.88;;;21.60;52.90;;;;;;5047340;28;20368;-52
2022/09/24 08:08:55;;;;;;;4.13;3.53;;;21.60;52.90;;;;;;5043456;28;20052;-51
2022/09/24 08:11:21;;;;;;;8.52;3.88;;;21.60;52.90;;;;;;5048219;28;20094;-50
2022/09/24 08:13:47;;;;;;;4.13;3.38;;;21.70;53.00;;;;;;5044271;28;20448;-49
2022/09/24 08:16:15;;;;;;;4.32;3.42;;;21.70;53.00;;;;;;5048058;28;20047;-50
2022/09/24 08:18:42;;;;;;;4.05;3.17;;;21.60;52.90;;;;;;5045172;28;20032;-49
2022/09/24 08:21:10;;;;;;;4.20;3.65;;;21.70;53.00;;;;;;5046750;28;20029;-51
2022/09/24 08:23:38;;;;;;;4.07;3.65;;;21.60;52.90;;;;;;5044161;28;20452;-54
2022/09/24 08:26:05;;;;;;;6.05;3.55;;;21.70;53.60;;;;;;5047688;28;20043;-53
2022/09/24 08:28:31;;;;;;;4.60;3.80;;;21.70;53.00;;;;;;5048564;28;20336;-48
2022/09/24 08:30:59;;;;;;;4.35;3.60;;;21.70;53.00;;;;;;5045811;28;20025;-48
2022/09/24 08:33:26;;;;;;;4.00;3.60;;;21.60;52.90;;;;;;5045447;28;20025;-49
2022/09/24 08:35:52;;;;;;;4.50;3.63;;;21.70;53.00;;;;;;5044633;28;20024;-50
2022/09/24 08:38:19;;;;;;;4.80;3.83;;;21.60;52.90;;;;;;5041440;28;20029;-52
2022/09/24 08:41:04;;;;;;;5.50;4.05;;;21.70;53.00;;;;;;5045143;28;20033;-51
2022/09/24 08:43:57;;;;;;;;;;;21.60;52.90;;;;;;5034663;28;20426;-51
2022/09/24 08:49:38;;;;;;;4.82;3.83;;;21.70;52.90;;;;;;5045423;28;20068;-51
2022/09/24 08:52:42;;;;;;;5.57;3.63;;;21.70;53.00;;;;;;5042564;28;20083;-50
2022/09/24 08:55:38;;;;;;;4.25;3.67;;;21.70;53.00;;;;;;5000343;28;20037;-50
2022/09/24 08:58:15;;;;;;;7.28;3.58;;;21.60;53.00;;;;;;4992550;28;20034;-52
2022/09/24 09:01:06;;;;;;;4.93;3.80;;;21.60;53.10;;;;;;5023873;28;20377;-52
2022/09/24 09:03:51;;;;;;;4.60;3.60;;;21.60;53.10;;;;;;5041196;28;20029;-51
2022/09/24 09:06:35;;;;;;;3.90;3.50;;;21.60;53.20;;;;;;5046229;28;20116;-50
2022/09/24 09:09:24;;;;;;;5.15;3.92;;;21.70;53.30;;;;;;5039991;28;20040;-51
2022/09/24 09:12:02;;;;;;;3.47;3.17;;;21.60;53.20;;;;;;5047310;28;20048;-53
2022/09/24 09:15:09;;;;;;;4.80;3.78;;;21.60;53.20;;;;;;5045812;28;20103;-49
2022/09/24 09:17:53;;;;;;;5.30;3.65;;;21.70;53.20;;;;;;5032561;28;20033;-54
2022/09/24 09:20:29;;;;;;;4.03;3.38;;;21.60;53.10;;;;;;5038823;28;20037;-55
2022/09/24 09:23:00;;;;;;;4.10;3.50;;;21.60;53.10;;;;;;5074563;28;20036;-52
2022/09/24 09:25:31;;;;;;;4.35;3.50;;;21.60;53.10;;;;;;5046131;28;20074;-51
2022/09/24 09:28:27;;;;;;;4.47;3.58;;;21.60;53.20;;;;;;5043818;28;20029;-50
2022/09/24 09:30:58;;;;;;;4.07;3.67;;;21.60;53.10;;;;;;5028868;28;20055;-50
2022/09/24 09:33:46;;;;;;;3.85;3.45;;;21.70;53.10;;;;;;5041210;28;20047;-49
2022/09/24 09:36:31;;;;;;;3.55;3.20;;;21.60;53.10;;;;;;5038333;28;20149;-48
2022/09/24 09:39:20;;;;;;;4.63;3.22;;;21.60;53.10;;;;;;5042104;28;21114;-50
2022/09/24 09:42:08;;;;;;;3.83;2.90;;;21.60;53.10;;;;;;5037175;28;20036;-50
2022/09/24 09:44:43;;;;;;;3.80;3.08;;;21.60;53.10;;;;;;5047330;28;20051;-48
2022/09/24 09:47:38;;;;;;;7.25;3.53;;;21.60;53.40;;;;;;5045163;28;20104;-51
2022/09/24 09:50:24;;;;;;;4.20;3.10;;;21.60;53.70;;;;;;5042124;28;20026;-51
2022/09/24 09:52:51;;;;;;;6.00;2.95;;;21.60;53.90;;;;;;5048086;28;20028;-51
2022/09/24 09:55:23;;;;;;;4.00;3.13;;;21.70;54.00;;;;;;5046014;28;20192;-49
2022/09/24 09:57:50;;;;;;;3.30;2.97;;;21.60;54.00;;;;;;5047195;28;20049;-50
2022/09/24 10:00:32;;;;;;;3.65;2.95;;;21.70;54.00;;;;;;5042297;28;20495;-49
2022/09/24 10:02:58;;;;;;;3.58;3.10;;;21.60;53.90;;;;;;5045254;28;20024;-46
2022/09/24 10:05:27;;;;;;;4.78;3.63;;;21.70;54.00;;;;;;5043385;28;20567;-49
2022/09/24 10:07:56;;;;;;;4.63;3.28;;;21.60;53.90;;;;;;5046404;28;20344;-49
2022/09/24 10:10:26;;;;;;;4.75;3.10;;;21.60;53.90;;;;;;5039586;28;20121;-51
2022/09/24 10:13:11;;;;;;;4.35;3.03;;;21.70;54.00;;;;;;5046651;28;20024;-51
2022/09/24 10:15:51;;;;;;;3.97;2.90;;;21.60;53.90;;;;;;5041135;28;20029;-52
2022/09/24 10:18:29;;;;;;;4.13;3.10;;;21.60;53.90;;;;;;5042302;28;20075;-54
2022/09/24 10:20:56;;;;;;;5.28;3.50;;;21.60;53.90;;;;;;5042712;28;20067;-52
2022/09/24 10:23:35;;;;;;;3.60;3.00;;;21.60;54.00;;;;;;5040878;28;20029;-51
2022/09/24 10:26:02;;;;;;;3.40;3.10;;;21.70;54.10;;;;;;5038216;28;20483;-53
2022/09/24 10:31:17;;;;;;;4.05;2.88;;;21.70;54.10;;;;;;5043706;28;20041;-53
2022/09/24 10:33:47;;;;;;;4.75;2.95;;;21.70;54.10;;;;;;5048225;28;20088;-51
2022/09/24 10:36:14;;;;;;;5.00;3.40;;;21.70;54.00;;;;;;5041012;28;20160;-50
2022/09/24 10:38:40;;;;;;;3.40;2.95;;;21.60;54.00;;;;;;5047105;28;20444;-51
2022/09/24 10:41:27;;;;;;;3.67;3.30;;;21.70;54.10;;;;;;5044180;28;20074;-50
2022/09/24 10:43:55;;;;;;;5.22;3.60;;;21.70;54.00;;;;;;5039028;28;20445;-49
2022/09/24 10:46:39;;;;;;;5.07;3.28;;;21.70;54.00;;;;;;5044498;28;20018;-52
2022/09/24 10:49:05;;;;;;;3.70;3.10;;;21.70;54.00;;;;;;5039905;28;20039;-53
2022/09/24 10:51:40;;;;;;;4.03;3.20;;;21.70;54.20;;;;;;5041781;28;20111;-50
2022/09/24 10:54:32;;;;;;;4.30;3.30;;;21.70;54.60;;;;;;5044144;28;20465;-53
2022/09/24 10:57:01;;;;;;;4.47;3.38;;;21.70;54.60;;;;;;5039820;28;20444;-52
2022/09/24 10:59:38;;;;;;;4.15;3.13;;;21.70;54.60;;;;;;5048130;28;20049;-53
2022/09/24 11:02:30;;;;;;;3.35;2.90;;;21.70;54.60;;;;;;5050575;28;20017;-52
2022/09/24 11:05:11;;;;;;;5.60;3.75;;;21.70;54.60;;;;;;5039462;28;20064;-53
2022/09/24 11:07:55;;;;;;;4.38;3.15;;;21.70;54.60;;;;;;5046854;28;20061;-55
2022/09/24 11:10:51;;;;;;;4.82;3.17;;;21.70;54.60;;;;;;5047029;28;20467;-54
2022/09/24 11:13:40;;;;;;;4.25;3.20;;;21.60;54.50;;;;;;5049602;28;20044;-54
2022/09/24 11:16:33;;;;;;;3.33;2.70;;;21.70;54.50;;;;;;5043274;28;20029;-53
2022/09/24 11:19:02;;;;;;;4.65;3.13;;;21.60;54.40;;;;;;5043051;28;20028;-52
2022/09/24 11:22:09;;;;;;;3.63;3.10;;;21.60;54.40;;;;;;5046404;28;20021;-53
2022/09/24 11:24:47;;;;;;;3.67;3.15;;;21.60;54.40;;;;;;5037415;28;20052;-49
2022/09/24 11:27:45;;;;;;;4.07;3.40;;;21.60;54.40;;;;;;5035579;28;20052;-54
2022/09/24 11:30:20;;;;;;;3.53;3.13;;;21.70;54.50;;;;;;5035953;28;20060;-54
2022/09/24 11:33:17;;;;;;;3.95;2.97;;;21.70;54.50;;;;;;5051914;28;20029;-53
2022/09/24 11:36:09;;;;;;;3.50;3.10;;;21.60;54.40;;;;;;5032008;28;20036;-58
2022/09/24 11:38:54;;;;;;;4.10;3.38;;;21.70;54.50;;;;;;5029616;28;20424;-56
2022/09/24 11:41:56;;;;;;;4.05;3.22;;;21.70;54.50;;;;;;5033912;28;20095;-58
2022/09/24 11:44:56;;;;;;;3.90;2.95;;;21.70;54.70;;;;;;5025778;28;20041;-58
2022/09/24 11:47:33;;;;;;;3.83;3.20;;;21.70;54.80;;;;;;5041940;28;20047;-55
2022/09/24 11:50:50;;;;;;;5.95;3.20;;;21.80;55.30;;;;;;5045976;28;20463;-59
2022/09/24 11:53:35;;;;;;;3.22;2.88;;;22.00;54.50;;;;;;5027062;28;20057;-60
2022/09/24 11:56:14;;;;;;;3.13;2.75;;;22.20;54.20;;;;;;5038050;28;20025;-59
2022/09/24 11:59:24;;;;;;;3.28;2.30;;;22.40;53.80;;;;;;5030171;28;20100;-59
2022/09/24 12:01:57;;;;;;;3.03;2.60;;;22.70;53.30;;;;;;5027000;28;20064;-59
2022/09/24 12:04:39;;;;;;;2.90;2.30;;;22.90;52.90;;;;;;5030385;28;20079;-57
2022/09/24 12:07:22;;;;;;;2.47;2.13;;;23.10;53.20;;;;;;5032537;28;20151;-56
2022/09/24 12:09:58;;;;;;;4.30;2.38;;;23.30;52.20;;;;;;5028314;28;20423;-54
2022/09/24 12:12:36;;;;;;;3.22;2.30;;;23.50;51.90;;;;;;5045990;28;20456;-55
2022/09/24 12:15:20;;;;;;;2.70;2.28;;;23.60;51.40;;;;;;5032023;28;20091;-53
2022/09/24 12:18:07;;;;;;;4.50;2.30;;;23.80;51.00;;;;;;5034647;28;20049;-55
2022/09/24 12:20:47;;;;;;;3.15;2.20;;;23.90;50.70;;;;;;5033342;28;20124;-53
2022/09/24 12:23:18;;;;;;;4.55;2.33;;;24.10;50.40;;;;;;5045652;28;20029;-57
2022/09/24 12:25:48;;;;;;;2.55;1.90;;;24.20;50.10;;;;;;5039282;28;21451;-55
2022/09/24 12:34:53;;;;;;;3.08;2.28;;;24.60;49.30;;;;;;5036926;28;20057;-59
2022/09/24 12:37:27;;;;;;;2.37;2.17;;;24.70;49.30;;;;;;5034749;28;20032;-59
2022/09/24 12:40:19;;;;;;;2.08;1.88;;;24.80;49.30;;;;;;5038426;28;20335;-58
2022/09/24 12:42:52;;;;;;;6.38;2.22;;;24.90;49.30;;;;;;5042189;28;20025;-58
2022/09/24 12:45:21;;;;;;;4.47;2.58;;;25.00;48.80;;;;;;5033268;28;20029;-55
2022/09/24 12:48:01;;;;;;;3.97;2.60;;;25.00;48.50;;;;;;5035842;28;20029;-63
2022/09/24 12:50:36;;;;;;;3.90;2.90;;;25.00;48.40;;;;;;5035918;28;20061;-60
2022/09/24 12:53:02;;;;;;;4.75;3.30;;;25.00;48.40;;;;;;5040754;28;20095;-60
2022/09/24 12:55:33;;;;;;;7.13;3.30;;;25.00;48.30;;;;;;5039421;28;20021;-55
2022/09/24 12:58:06;;;;;;;5.75;3.50;;;25.00;48.10;;;;;;5035708;28;20103;-56
2022/09/24 13:00:40;;;;;;;8.48;3.95;;;25.00;48.00;;;;;;5031615;28;20391;-62
2022/09/24 13:03:26;;;;;;;6.10;3.55;;;25.00;48.00;;;;;;5031782;28;20029;-61
2022/09/24 13:05:54;;;;;;;9.20;3.85;;;25.00;48.30;;;;;;5029234;28;20025;-60
2022/09/24 13:08:20;;;;;;;4.97;3.55;;;25.00;48.40;;;;;;5028750;28;20141;-57
2022/09/24 13:10:54;;;;;;;6.45;3.88;;;25.00;48.40;;;;;;5035445;28;20384;-67
2022/09/24 13:13:24;;;;;;;6.78;3.85;;;24.90;48.30;;;;;;5048186;28;20384;-59
2022/09/24 13:16:01;;;;;;;4.90;3.55;;;25.00;48.40;;;;;;5042244;28;20025;-59
2022/09/24 13:18:30;;;;;;;6.25;3.72;;;25.00;48.40;;;;;;5036587;28;20028;-59
2022/09/24 13:21:07;;;;;;;8.00;3.65;;;25.00;48.90;;;;;;5030124;28;20124;-58
2022/09/24 13:23:36;;;;;;;15.88;4.20;;;25.00;48.20;;;;;;5037097;28;20033;-58
2022/09/24 13:26:33;;;;;;;5.18;3.53;;;25.00;48.10;;;;;;5040810;28;20428;-55
2022/09/24 13:29:04;;;;;;;5.95;3.75;;;25.00;48.00;;;;;;5066716;28;20368;-58
2022/09/24 13:31:39;;;;;;;7.28;3.85;;;25.00;47.90;;;;;;5035046;28;20441;-59
2022/09/24 13:34:38;;;;;;;5.80;3.67;;;25.00;47.90;;;;;;5044420;28;20025;-57